KAMN/AMN METAR and TAF weather

Enter ICAO airport designator
Station Type Date Time Source
KAMN METAR 2019/02/20 07:15 UTC NOAA

KAMN 200715Z AUTO 00000KT 10SM CLR M09/M13 A3041 RMK AO2 T10951135


Station Type Date Time Source
KAMN Decoded METAR 2019/02/20 07:15 UTC NOAA

Alma, Gratiot Community Airport, MI, United States (KAMN) 43-19-19N 084-41-16W
Feb 20, 2019 - 02:15 AM EST / 2019.02.20 0715 UTC
Wind: Calm:0
Visibility: 10 mile(s):0
Sky conditions: clear
Temperature: 14.9 F (-9.5 C)
Dew Point: 7.7 F (-13.5 C)
Relative Humidity: 72%
Pressure (altimeter): 30.41 in. Hg (1029 hPa)
ob: KAMN 200715Z AUTO 00000KT 10SM CLR M09/M13 A3041 RMK AO2 T10951135
cycle: 7

Station Type Date Time Source
KAMN TAF UTC NOAA

Error!


Example: see airport list